WetterOnline ( https://www.wetteronline.de )

Wetter aktuell Visby

Aktuelles Wetter: Visby (47m)

6-stündlich | Neueste Meldungen
Ortszeit Temperatur Wetter
Fr, 18.10. 8:00 9.8° C leicht bewölkt
Fr, 18.10. 2:00 10.9° C Nebel
Do, 17.10. 20:00 9.1° C bedeckt
Do, 17.10. 14:00 9.3° C bedeckt
Do, 17.10. 8:00 9.1° C Nebel
Do, 17.10. 2:00 11.6° C Nebel
Mi, 16.10. 20:00 11.5° C Nebel
Mi, 16.10. 14:00 12.6° C bedeckt
Ortszeit Temperatur Wetter
Fr, 18.10. 10:20 11° C leicht bewölkt
Fr, 18.10. 10:00 11.1° C Nebel
Fr, 18.10. 9:50 11° C Nebelschwaden
Fr, 18.10. 9:20 11° C bewölkt
Fr, 18.10. 9:00 10.1° C Nebel
Fr, 18.10. 8:50 10° C Nebelschwaden
Fr, 18.10. 8:20 10° C Nebelschwaden
Fr, 18.10. 8:00 9.8° C leicht bewölkt
Fr, 18.10. 7:20 11° C leicht bewölkt
Fr, 18.10. 7:00 11.4° C wolkig
Ortszeit Relative Feuchte Sichtweite
Fr, 18.10. 8:00 98% 2.1 km
Fr, 18.10. 2:00 98% 0.2 km
Do, 17.10. 20:00 96% 23 km
Do, 17.10. 14:00 97% 26 km
Do, 17.10. 8:00 99% 1.0 km
Do, 17.10. 2:00 98% 100 m
Mi, 16.10. 20:00 98% 0.2 km
Mi, 16.10. 14:00 97% 3.7 km
Ortszeit Relative Feuchte Sichtweite
Fr, 18.10. 10:20 100% 4.0 km
Fr, 18.10. 10:00 98% 6 km
Fr, 18.10. 9:50 100% 2.4 km
Fr, 18.10. 9:20 100% 1.5 km
Fr, 18.10. 9:00 98% 0.6 km
Fr, 18.10. 8:50 100% >10 km
Fr, 18.10. 8:20 93% 7 km
Fr, 18.10. 8:00 98% 2.1 km
Fr, 18.10. 7:20 100% 9 km
Fr, 18.10. 7:00 98% 14 km
Ortszeit Niederschlagsmenge Niederschlagsart
Fr, 18.10. 8:00 0.0 l/m2 -
Fr, 18.10. 2:00 0.0 l/m2 in 6 Std. Schauer
Do, 17.10. 20:00 0.0 l/m2 in 12 Std. -
Do, 17.10. 14:00 0.0 l/m2 in 6 Std. -
Do, 17.10. 8:00 0.0 l/m2 in 12 Std. -
Do, 17.10. 2:00 0.0 l/m2 in 6 Std. -
Mi, 16.10. 20:00 0.0 l/m2 in 12 Std. -
Mi, 16.10. 14:00 0.0 l/m2 in 6 Std. -
Ortszeit Niederschlagsmenge Niederschlagsart
Fr, 18.10. 10:20 keine Meldung -
Fr, 18.10. 10:00 0.0 l/m2 in 1 Std. -
Fr, 18.10. 9:50 keine Meldung -
Fr, 18.10. 9:20 keine Meldung -
Fr, 18.10. 9:00 0.0 l/m2 in 1 Std. -
Fr, 18.10. 8:50 keine Meldung -
Fr, 18.10. 8:20 keine Meldung -
Fr, 18.10. 8:00 0.0 l/m2 in 1 Std. -
Fr, 18.10. 7:20 keine Meldung -
Fr, 18.10. 7:00 0.0 l/m2 in 1 Std. -
Ortszeit Stärke Spitze Richtung
km/h Bft. km/h Grad Sektor
Fr, 18.10. 8:00 7 2 18 230° SW
Fr, 18.10. 2:00 7 2 - 180° S
Do, 17.10. 20:00 11 2 - 160° S
Do, 17.10. 14:00 11 2 - 290° W
Do, 17.10. 8:00 25 4 - 350° N
Do, 17.10. 2:00 7 2 - 20° N
Mi, 16.10. 20:00 7 2 - 50° NO
Mi, 16.10. 14:00 14 3 - 90° O
Ortszeit Stärke Spitze Richtung
km/h Bft. km/h Grad Sektor
Fr, 18.10. 10:20 11 2 - 190° S
Fr, 18.10. 10:00 11 2 14 180° S
Fr, 18.10. 9:50 9 2 - 180° S
Fr, 18.10. 9:20 7 2 - 170° S
Fr, 18.10. 9:00 7 2 11 170° S
Fr, 18.10. 8:50 7 2 - 170° S
Fr, 18.10. 8:20 6 1 - 210° SW
Fr, 18.10. 8:00 7 2 18 230° SW
Fr, 18.10. 7:20 11 2 - 240° SW
Fr, 18.10. 7:00 11 2 25 250° W
Ortszeit Untergrenze Bedeckung Gattung
total tief tief mittel hoch
Fr, 18.10. 8:00 1050 m 2/8 2/8 - - -
Fr, 18.10. 2:00 30 m 8/8 8/8 - - -
Do, 17.10. 20:00 180 m 8/8 8/8 - - -
Do, 17.10. 14:00 150 m 8/8 8/8 - - -
Do, 17.10. 8:00 60 m 8/8 8/8 - - -
Do, 17.10. 2:00 30 m 8/8 8/8 - - -
Mi, 16.10. 20:00 30 m 8/8 8/8 - - -
Mi, 16.10. 14:00 90 m 8/8 8/8 - - -
Ortszeit Bedeckungsgrad in Achtel und Wolkenuntergrenze
Fr, 18.10. 10:20 3-4(90m)
Fr, 18.10. 10:00 5(90m) 8(1500m)
Fr, 18.10. 9:50 3-4(90m)
Fr, 18.10. 9:20 3-4(60m) 5-7(1500m)
Fr, 18.10. 9:00 1(780m) 3(1500m)
Fr, 18.10. 8:50 keine Wolken(unter 1500 m)
Fr, 18.10. 8:20 1-2(960m)
Fr, 18.10. 8:00 2(1050m)
Fr, 18.10. 7:20 1-2(150m) 3-4(300m)
Fr, 18.10. 7:00 2(150m) 3(180m) 5(390m)
Ortszeit Luftdruck NN (hPa) Tendenz (hPa in 3 Std.)
Fr, 18.10. 8:00 1011 + 0,4
Fr, 18.10. 2:00 1011 - 0,3
Do, 17.10. 20:00 1011 + 0,3
Do, 17.10. 14:00 1010 + 1,8
Do, 17.10. 8:00 1005 + 2,0
Do, 17.10. 2:00 1003 + 0,1
Mi, 16.10. 20:00 1003 - 0,7
Mi, 16.10. 14:00 1004 - 1,1
Ortszeit Luftdruck NN (hPa) Tendenz (hPa in 3 Std.)
Fr, 18.10. 10:20 1011 keine Meldung
Fr, 18.10. 10:00 1011 + 0,6
Fr, 18.10. 9:50 1011 keine Meldung
Fr, 18.10. 9:20 1011 keine Meldung
Fr, 18.10. 9:00 1011 + 0,5
Fr, 18.10. 8:50 1011 keine Meldung
Fr, 18.10. 8:20 1010 keine Meldung
Fr, 18.10. 8:00 1011 + 0,4
Fr, 18.10. 7:20 1010 keine Meldung
Fr, 18.10. 7:00 1011 0,0
Ortszeit Schneehöhe (cm)
Fr, 18.10. 8:00 -
Fr, 18.10. 2:00 -
Do, 17.10. 20:00 -
Do, 17.10. 14:00 -
Do, 17.10. 8:00 -
Do, 17.10. 2:00 -
Mi, 16.10. 20:00 -
Mi, 16.10. 14:00 -
Ortszeit Schneehöhe (cm)
Fr, 18.10. 10:20 -
Fr, 18.10. 10:00 -
Fr, 18.10. 9:50 -
Fr, 18.10. 9:20 -
Fr, 18.10. 9:00 -
Fr, 18.10. 8:50 -
Fr, 18.10. 8:20 -
Fr, 18.10. 8:00 -
Fr, 18.10. 7:20 -
Fr, 18.10. 7:00 -
Link zu dieser Seite / Seite empfehlen

Das Wetter in ...